createdAt,value
2018-08-14T00:00:31.614Z,99.90
2018-08-14T00:03:00.694Z,99.90
2018-08-14T00:05:29.766Z,99.90
2018-08-14T00:07:58.229Z,99.90
2018-08-14T00:10:27.088Z,99.90
2018-08-14T00:12:56.041Z,99.90
2018-08-14T00:15:24.688Z,99.90
2018-08-14T00:17:53.028Z,99.90
2018-08-14T00:20:23.401Z,99.90
2018-08-14T00:22:52.564Z,99.90
2018-08-14T00:25:21.242Z,99.90
2018-08-14T00:27:52.162Z,99.90
2018-08-14T00:30:22.242Z,99.90
2018-08-14T00:32:50.957Z,99.90
2018-08-14T00:35:19.481Z,99.90
2018-08-14T00:37:47.982Z,99.90
2018-08-14T00:40:19.266Z,99.90
2018-08-14T00:42:49.440Z,99.90
2018-08-14T00:45:19.839Z,99.90
2018-08-14T00:47:48.910Z,99.90
2018-08-14T00:50:17.608Z,99.90
2018-08-14T00:52:46.348Z,99.90
2018-08-14T00:55:15.888Z,99.90
2018-08-14T00:57:44.852Z,99.90
2018-08-14T01:00:18.598Z,99.90
2018-08-14T01:02:47.813Z,99.90
2018-08-14T01:05:16.718Z,99.90
2018-08-14T01:07:45.729Z,99.90
2018-08-14T01:10:14.976Z,99.90
2018-08-14T01:12:48.465Z,99.90
2018-08-14T01:15:18.192Z,99.90
2018-08-14T01:17:48.721Z,99.90
2018-08-14T01:20:17.359Z,99.90
2018-08-14T01:22:46.602Z,99.90
2018-08-14T01:25:15.722Z,99.90
2018-08-14T01:27:44.589Z,99.90
2018-08-14T01:30:19.148Z,99.90
2018-08-14T01:32:47.841Z,99.90
2018-08-14T01:35:16.348Z,99.90
2018-08-14T01:37:44.846Z,99.90
2018-08-14T01:40:13.779Z,99.90
2018-08-14T01:42:42.466Z,99.90
2018-08-14T01:45:12.251Z,99.90
2018-08-14T01:47:41.921Z,99.90
2018-08-14T01:50:14.934Z,99.90
2018-08-14T01:52:43.410Z,99.90
2018-08-14T01:55:12.785Z,99.90
2018-08-14T01:57:42.134Z,99.90
2018-08-14T02:00:10.812Z,99.90
2018-08-14T02:02:39.293Z,99.90
2018-08-14T02:05:09.193Z,99.90
2018-08-14T02:07:38.117Z,99.90
2018-08-14T02:10:08.986Z,99.90
2018-08-14T02:12:37.333Z,99.90
2018-08-14T02:15:06.867Z,99.90
2018-08-14T02:17:35.251Z,99.90
2018-08-14T02:20:03.698Z,99.90
2018-08-14T02:22:32.808Z,99.90
2018-08-14T02:25:01.372Z,99.90
2018-08-14T02:27:29.779Z,99.90
2018-08-14T02:29:58.234Z,99.90
2018-08-14T02:32:26.718Z,99.90
2018-08-14T02:34:55.144Z,99.90
2018-08-14T02:37:23.612Z,99.90
2018-08-14T02:39:52.058Z,99.90
2018-08-14T02:42:20.722Z,99.90
2018-08-14T02:44:49.265Z,99.90
2018-08-14T02:47:17.697Z,99.90
2018-08-14T02:49:46.391Z,99.90
2018-08-14T02:52:14.774Z,99.90
2018-08-14T02:54:43.535Z,99.90
2018-08-14T02:57:12.047Z,99.90
2018-08-14T02:59:40.559Z,99.90
2018-08-14T03:02:09.030Z,99.90
2018-08-14T03:04:37.535Z,99.90
2018-08-14T03:07:06.021Z,99.90
2018-08-14T03:09:34.864Z,99.90
2018-08-14T03:12:03.898Z,99.90
2018-08-14T03:14:32.257Z,99.90
2018-08-14T03:17:00.654Z,99.90
2018-08-14T03:19:29.496Z,99.90
2018-08-14T03:21:57.905Z,99.90
2018-08-14T03:24:26.346Z,99.90
2018-08-14T03:26:54.663Z,99.90
2018-08-14T03:29:23.406Z,99.90
2018-08-14T03:31:51.829Z,99.90
2018-08-14T03:34:20.278Z,99.90
2018-08-14T03:36:48.761Z,99.90
2018-08-14T03:39:17.227Z,99.90
2018-08-14T03:41:47.457Z,99.90
2018-08-14T03:44:15.869Z,99.90
2018-08-14T03:46:44.311Z,99.90
2018-08-14T03:49:12.737Z,99.90
2018-08-14T03:51:41.164Z,99.90
2018-08-14T03:54:09.605Z,99.90
2018-08-14T03:56:38.092Z,99.90
2018-08-14T03:59:06.562Z,99.90
2018-08-14T04:01:34.923Z,99.90
2018-08-14T04:04:03.283Z,99.90
2018-08-14T04:06:31.806Z,99.90
2018-08-14T04:09:00.163Z,99.90
2018-08-14T04:11:28.603Z,99.90
2018-08-14T04:13:57.293Z,99.90
2018-08-14T04:16:25.566Z,99.90
2018-08-14T04:18:54.071Z,99.90
2018-08-14T04:21:23.584Z,99.90
2018-08-14T04:23:52.399Z,99.90
2018-08-14T04:26:20.838Z,99.90
2018-08-14T04:28:49.892Z,99.90
2018-08-14T04:31:18.293Z,99.90
2018-08-14T04:33:46.731Z,99.90
2018-08-14T04:36:15.236Z,99.90
2018-08-14T04:38:43.703Z,99.90
2018-08-14T04:41:12.151Z,99.90
2018-08-14T04:43:40.753Z,99.90
2018-08-14T04:46:09.279Z,99.90
2018-08-14T04:48:38.090Z,99.90
2018-08-14T04:51:08.157Z,99.90
2018-08-14T04:53:37.028Z,99.90
2018-08-14T04:56:06.194Z,99.90
2018-08-14T04:58:34.842Z,99.90
2018-08-14T05:01:03.510Z,99.90
2018-08-14T05:03:31.950Z,99.90
2018-08-14T05:06:01.073Z,99.90
2018-08-14T05:08:29.472Z,99.90
2018-08-14T05:10:57.944Z,99.90
2018-08-14T05:13:26.327Z,99.90
2018-08-14T05:15:54.841Z,99.90
2018-08-14T05:18:23.213Z,99.90
2018-08-14T05:20:51.609Z,99.90
2018-08-14T05:23:20.041Z,99.90
2018-08-14T05:25:48.694Z,99.90
2018-08-14T05:28:18.018Z,99.90
2018-08-14T05:30:47.423Z,99.90
2018-08-14T05:33:16.766Z,99.90
2018-08-14T05:35:45.081Z,99.90
2018-08-14T05:38:13.435Z,99.90
2018-08-14T05:40:41.854Z,99.90
2018-08-14T05:43:10.218Z,99.90
2018-08-14T05:45:39.023Z,99.90
2018-08-14T05:48:07.380Z,99.90
2018-08-14T05:50:36.555Z,99.90
2018-08-14T05:53:05.028Z,99.90
2018-08-14T05:55:33.859Z,99.90
2018-08-14T05:58:02.366Z,99.90
2018-08-14T06:00:30.735Z,99.90
2018-08-14T06:02:59.285Z,99.90
2018-08-14T06:05:28.371Z,99.90
2018-08-14T06:07:57.496Z,99.90
2018-08-14T06:10:25.893Z,99.90
2018-08-14T06:12:54.507Z,99.90
2018-08-14T06:15:22.847Z,99.90
2018-08-14T06:17:51.234Z,99.90
2018-08-14T06:20:19.716Z,99.90
2018-08-14T06:22:48.235Z,99.90
2018-08-14T06:25:16.694Z,99.90
2018-08-14T06:27:45.027Z,99.90
2018-08-14T06:30:15.782Z,99.90
2018-08-14T06:32:44.265Z,99.90
2018-08-14T06:35:12.610Z,99.90
2018-08-14T06:37:41.295Z,99.90
2018-08-14T06:40:12.842Z,99.90
2018-08-14T06:42:42.021Z,99.90
2018-08-14T06:45:14.578Z,99.90
2018-08-14T06:47:43.124Z,99.90
2018-08-14T06:50:13.847Z,99.90
2018-08-14T06:52:42.566Z,99.90
2018-08-14T06:55:11.582Z,99.90
2018-08-14T06:57:41.643Z,99.90
2018-08-14T07:00:14.604Z,99.90
2018-08-14T07:02:43.070Z,99.90
2018-08-14T07:05:11.537Z,99.90
2018-08-14T07:07:40.145Z,99.90
2018-08-14T07:10:10.228Z,99.90
2018-08-14T07:12:39.097Z,99.90
2018-08-14T07:15:14.358Z,99.90
2018-08-14T07:17:42.946Z,99.90
2018-08-14T07:20:12.039Z,99.90
2018-08-14T07:22:41.593Z,99.90
2018-08-14T07:25:10.132Z,99.90
2018-08-14T07:27:39.695Z,99.90
2018-08-14T07:30:11.917Z,99.90
2018-08-14T07:32:40.555Z,99.90
2018-08-14T07:35:09.437Z,99.90
2018-08-14T07:37:37.859Z,99.90
2018-08-14T07:40:07.340Z,99.90
2018-08-14T07:42:35.869Z,99.90
2018-08-14T07:45:05.540Z,99.90
2018-08-14T07:47:34.870Z,99.90
2018-08-14T07:50:03.283Z,99.90
2018-08-14T07:52:31.990Z,99.90
2018-08-14T07:55:00.403Z,99.90
2018-08-14T07:57:29.202Z,99.90
2018-08-14T07:59:57.517Z,99.90
2018-08-14T08:02:26.346Z,99.90
2018-08-14T08:04:54.994Z,99.90
2018-08-14T08:07:23.363Z,99.90
2018-08-14T08:09:51.758Z,99.90
2018-08-14T08:12:21.160Z,99.90
2018-08-14T08:14:50.341Z,99.90
2018-08-14T08:17:19.441Z,99.90
2018-08-14T08:19:47.861Z,99.90
2018-08-14T08:22:16.373Z,99.90
2018-08-14T08:24:44.873Z,99.90
2018-08-14T08:27:13.459Z,99.90
2018-08-14T08:29:41.805Z,99.90
2018-08-14T08:32:10.331Z,99.90
2018-08-14T08:34:39.762Z,99.90
2018-08-14T08:37:08.145Z,99.90
2018-08-14T08:39:36.670Z,99.90
2018-08-14T08:42:05.237Z,99.90
2018-08-14T08:44:34.977Z,99.90
2018-08-14T08:47:03.414Z,99.90
2018-08-14T08:49:31.841Z,99.90
2018-08-14T08:52:00.348Z,99.90
2018-08-14T08:54:28.859Z,99.90
2018-08-14T08:56:57.213Z,99.60
2018-08-14T08:59:25.593Z,99.60
2018-08-14T09:01:53.928Z,98.80
2018-08-14T09:04:22.594Z,98.30
2018-08-14T09:06:51.040Z,96.50
2018-08-14T09:09:19.439Z,96.20
2018-08-14T09:11:48.392Z,96.10
2018-08-14T09:14:17.245Z,94.00
2018-08-14T09:16:45.818Z,93.80
2018-08-14T09:19:14.261Z,92.80
2018-08-14T09:21:43.209Z,90.60
2018-08-14T09:24:12.015Z,87.40
2018-08-14T09:26:40.682Z,87.40
2018-08-14T09:29:10.214Z,88.90
2018-08-14T09:31:38.599Z,90.20
2018-08-14T09:34:07.137Z,90.20
2018-08-14T09:36:35.590Z,90.50
2018-08-14T09:39:07.082Z,89.10
2018-08-14T09:41:35.815Z,90.50
2018-08-14T09:44:04.775Z,88.00
2018-08-14T09:46:33.435Z,88.20
2018-08-14T09:49:01.935Z,86.40
2018-08-14T09:51:30.964Z,84.60
2018-08-14T09:53:59.506Z,85.30
2018-08-14T09:56:27.879Z,87.00
2018-08-14T09:58:56.259Z,85.30
2018-08-14T10:01:28.853Z,84.80
2018-08-14T10:04:07.784Z,84.60
2018-08-14T10:06:41.255Z,80.30
2018-08-14T10:09:10.403Z,77.60
2018-08-14T10:11:40.170Z,76.60
2018-08-14T10:14:09.996Z,74.50
2018-08-14T10:16:38.351Z,77.10
2018-08-14T10:19:06.928Z,76.00
2018-08-14T10:21:35.408Z,73.60
2018-08-14T10:24:03.792Z,74.30
2018-08-14T10:26:32.447Z,71.50
2018-08-14T10:29:02.196Z,70.90
2018-08-14T10:31:30.823Z,67.00
2018-08-14T10:33:59.126Z,66.00
2018-08-14T10:36:27.737Z,61.00
2018-08-14T10:38:57.209Z,58.80
2018-08-14T10:41:25.610Z,48.70
2018-08-14T10:43:54.110Z,37.90
2018-08-14T10:46:22.690Z,31.90
2018-08-14T10:48:51.294Z,31.40
2018-08-14T10:51:19.879Z,30.10
2018-08-14T10:53:48.366Z,33.30
2018-08-14T10:56:16.811Z,31.00
2018-08-14T10:58:45.388Z,27.60
2018-08-14T11:01:13.724Z,24.00
2018-08-14T11:03:43.165Z,19.40
2018-08-14T11:06:11.957Z,18.10
2018-08-14T11:08:41.549Z,19.10
2018-08-14T11:11:14.191Z,21.20
2018-08-14T11:13:42.640Z,19.20
2018-08-14T11:16:12.026Z,17.60
2018-08-14T11:18:41.290Z,18.10
2018-08-14T11:21:10.113Z,19.50
2018-08-14T11:23:38.998Z,20.70
2018-08-14T11:26:07.489Z,20.60
2018-08-14T11:28:36.425Z,18.90
2018-08-14T11:31:04.742Z,18.80
2018-08-14T11:33:33.594Z,20.20
2018-08-14T11:36:06.167Z,19.20
2018-08-14T11:38:35.366Z,18.80
2018-08-14T11:41:04.608Z,18.80
2018-08-14T11:43:33.054Z,18.80
2018-08-14T11:46:01.524Z,19.90
2018-08-14T11:48:29.876Z,21.50
2018-08-14T11:50:59.439Z,22.10
2018-08-14T11:53:27.891Z,22.20
2018-08-14T11:55:56.255Z,20.00
2018-08-14T11:58:25.712Z,18.60
2018-08-14T12:00:54.154Z,18.00
2018-08-14T12:03:22.521Z,18.60
2018-08-14T12:05:51.138Z,17.80
2018-08-14T12:08:19.614Z,17.30
2018-08-14T12:10:48.010Z,17.00
2018-08-14T12:13:18.455Z,16.80
2018-08-14T12:15:47.193Z,16.20
2018-08-14T12:18:15.558Z,16.20
2018-08-14T12:20:44.294Z,16.70
2018-08-14T12:23:12.805Z,16.30
2018-08-14T12:25:41.565Z,15.40
2018-08-14T12:28:10.388Z,14.90
2018-08-14T12:30:45.120Z,11.40
2018-08-14T12:36:17.065Z,8.50
2018-08-14T12:38:45.796Z,10.00
2018-08-14T12:41:14.391Z,10.00
2018-08-14T12:43:42.803Z,10.70
2018-08-14T12:46:11.319Z,11.90
2018-08-14T12:48:39.657Z,10.40
2018-08-14T12:51:08.081Z,10.00
2018-08-14T12:53:36.451Z,10.40
2018-08-14T12:56:04.945Z,9.70
2018-08-14T12:58:33.503Z,10.40
2018-08-14T13:01:02.034Z,10.40
2018-08-14T13:03:31.104Z,10.80
2018-08-14T13:05:59.701Z,11.30
2018-08-14T13:08:28.187Z,9.90
2018-08-14T13:10:57.109Z,8.40
2018-08-14T13:13:25.539Z,8.50
2018-08-14T13:15:54.012Z,9.50
2018-08-14T13:18:22.519Z,10.40
2018-08-14T13:20:51.030Z,10.40
2018-08-14T13:23:19.590Z,10.50
2018-08-14T13:25:48.012Z,10.80
2018-08-14T13:28:19.501Z,10.10
2018-08-14T13:30:48.109Z,9.60
2018-08-14T13:33:16.600Z,10.40
2018-08-14T13:35:45.152Z,8.70
2018-08-14T13:38:13.894Z,7.50
2018-08-14T13:40:42.346Z,8.10
2018-08-14T13:43:10.954Z,7.50
2018-08-14T13:45:39.405Z,6.50
2018-08-14T13:48:08.019Z,7.10
2018-08-14T13:50:37.226Z,5.90
2018-08-14T13:53:06.354Z,6.70
2018-08-14T13:55:34.858Z,6.60
2018-08-14T13:58:03.257Z,8.00
2018-08-14T14:00:31.693Z,9.00
2018-08-14T14:03:00.414Z,9.60
2018-08-14T14:05:28.925Z,8.90
2018-08-14T14:07:57.440Z,7.70
2018-08-14T14:10:26.302Z,7.30
2018-08-14T14:12:54.734Z,7.50
2018-08-14T14:15:24.684Z,8.00
2018-08-14T14:17:54.027Z,8.40
2018-08-14T14:20:24.770Z,8.30
2018-08-14T14:22:53.482Z,7.60
2018-08-14T14:25:22.401Z,8.00
2018-08-14T14:27:50.855Z,7.80
2018-08-14T14:30:19.716Z,9.30
2018-08-14T14:32:48.143Z,7.90
2018-08-14T14:35:16.569Z,8.40
2018-08-14T14:37:48.121Z,8.70
2018-08-14T14:40:19.932Z,8.80
2018-08-14T14:42:48.974Z,9.20
2018-08-14T14:45:17.601Z,9.70
2018-08-14T14:47:46.929Z,10.20
2018-08-14T14:50:15.396Z,10.10
2018-08-14T14:52:44.399Z,10.10
2018-08-14T14:55:15.076Z,10.10
2018-08-14T14:57:43.890Z,10.50
2018-08-14T15:00:17.552Z,10.60
2018-08-14T15:02:46.979Z,10.00
2018-08-14T15:05:16.029Z,10.80
2018-08-14T15:07:45.628Z,10.90
2018-08-14T15:10:14.013Z,10.00
2018-08-14T15:12:42.997Z,10.00
2018-08-14T15:15:11.411Z,10.40
2018-08-14T15:17:40.807Z,10.20
2018-08-14T15:20:16.137Z,10.50
2018-08-14T15:22:45.263Z,10.90
2018-08-14T15:25:14.840Z,11.30
2018-08-14T15:27:52.138Z,11.20
2018-08-14T15:30:21.571Z,11.00
2018-08-14T15:32:50.515Z,10.80
2018-08-14T15:35:18.851Z,11.40
2018-08-14T15:37:47.787Z,11.60
2018-08-14T15:40:16.963Z,11.50
2018-08-14T15:42:45.505Z,11.50
2018-08-14T15:45:13.962Z,10.90
2018-08-14T15:47:42.583Z,10.30
2018-08-14T15:50:11.316Z,9.90
2018-08-14T15:52:39.855Z,9.30
2018-08-14T15:55:08.609Z,9.90
2018-08-14T15:57:38.032Z,9.90
2018-08-14T16:00:06.500Z,9.90
2018-08-14T16:02:35.087Z,9.90
2018-08-14T16:05:03.843Z,10.00
2018-08-14T16:07:32.435Z,10.10
2018-08-14T16:10:00.908Z,10.10
2018-08-14T16:12:29.429Z,10.10
2018-08-14T16:14:57.985Z,10.10
2018-08-14T16:17:27.038Z,9.90
2018-08-14T16:19:55.848Z,9.80
2018-08-14T16:22:24.934Z,10.30
2018-08-14T16:24:53.533Z,10.70
2018-08-14T16:27:22.133Z,10.40
2018-08-14T16:29:51.192Z,9.90
2018-08-14T16:32:19.845Z,9.90
2018-08-14T16:34:48.157Z,9.80
2018-08-14T16:37:16.671Z,9.80
2018-08-14T16:39:45.124Z,9.70
2018-08-14T16:42:13.606Z,10.20
2018-08-14T16:44:42.045Z,10.50
2018-08-14T16:47:10.618Z,10.90
2018-08-14T16:49:39.791Z,11.20
2018-08-14T16:52:08.666Z,11.20
2018-08-14T16:54:37.511Z,11.20
2018-08-14T16:57:06.704Z,11.20
2018-08-14T16:59:35.904Z,10.70
2018-08-14T17:02:04.698Z,10.30
2018-08-14T17:04:33.066Z,10.20
2018-08-14T17:07:01.731Z,10.00
2018-08-14T17:09:30.968Z,10.80
2018-08-14T17:11:59.553Z,11.10
2018-08-14T17:14:28.065Z,11.10
2018-08-14T17:16:57.197Z,11.40
2018-08-14T17:19:34.763Z,10.90
2018-08-14T17:22:04.295Z,11.00
2018-08-14T17:24:33.131Z,10.80
2018-08-14T17:27:02.326Z,10.80
2018-08-14T17:29:31.205Z,10.50
2018-08-14T17:32:00.498Z,10.70
2018-08-14T17:34:29.685Z,10.50
2018-08-14T17:36:58.596Z,11.00
2018-08-14T17:39:28.126Z,11.10
2018-08-14T17:41:56.597Z,11.20
2018-08-14T17:44:25.242Z,11.20
2018-08-14T17:46:53.950Z,11.10
2018-08-14T17:49:22.450Z,11.30
2018-08-14T17:51:50.900Z,11.20
2018-08-14T17:54:19.415Z,11.40
2018-08-14T17:56:47.820Z,11.90
2018-08-14T17:59:16.570Z,12.20
2018-08-14T18:01:45.094Z,12.80
2018-08-14T18:04:15.553Z,13.30
2018-08-14T18:06:43.897Z,13.30
2018-08-14T18:09:13.968Z,13.50
2018-08-14T18:11:42.845Z,13.70
2018-08-14T18:14:11.933Z,13.70
2018-08-14T18:16:40.507Z,14.10
2018-08-14T18:19:09.373Z,14.20
2018-08-14T18:21:38.270Z,14.70
2018-08-14T18:24:06.940Z,14.80
2018-08-14T18:26:35.444Z,15.10
2018-08-14T18:29:06.756Z,15.30
2018-08-14T18:31:33.880Z,15.80
2018-08-14T18:34:02.507Z,16.80
2018-08-14T18:36:30.940Z,17.90
2018-08-14T18:38:59.481Z,17.20
2018-08-14T18:41:27.948Z,17.10
2018-08-14T18:43:56.642Z,17.10
2018-08-14T18:46:25.089Z,17.60
2018-08-14T18:48:54.038Z,18.00
2018-08-14T18:51:22.726Z,18.40
2018-08-14T18:53:51.289Z,18.50
2018-08-14T18:56:20.173Z,18.70
2018-08-14T18:58:48.768Z,19.00
2018-08-14T19:01:17.146Z,19.00
2018-08-14T19:03:45.632Z,19.00
2018-08-14T19:06:14.157Z,19.30
2018-08-14T19:08:42.708Z,19.50
2018-08-14T19:11:11.172Z,20.00
2018-08-14T19:13:40.029Z,20.70
2018-08-14T19:16:08.652Z,21.30
2018-08-14T19:18:37.183Z,21.60
2018-08-14T19:21:06.042Z,22.20
2018-08-14T19:23:34.505Z,22.40
2018-08-14T19:26:04.491Z,22.50
2018-08-14T19:28:33.268Z,22.50
2018-08-14T19:31:01.675Z,22.30
2018-08-14T19:33:30.286Z,22.00
2018-08-14T19:35:59.031Z,22.00
2018-08-14T19:38:28.383Z,22.00
2018-08-14T19:40:56.789Z,22.20
2018-08-14T19:43:25.273Z,23.20
2018-08-14T19:45:53.912Z,22.80
2018-08-14T19:48:22.382Z,22.80
2018-08-14T19:50:51.643Z,23.10
2018-08-14T19:53:20.242Z,23.30
2018-08-14T19:55:49.229Z,23.50
2018-08-14T19:58:17.758Z,23.90
2018-08-14T20:00:46.246Z,24.00
2018-08-14T20:03:15.719Z,24.10
2018-08-14T20:05:44.516Z,24.40
2018-08-14T20:08:13.219Z,24.50
2018-08-14T20:10:41.741Z,25.60
2018-08-14T20:13:10.277Z,25.40
2018-08-14T20:15:43.481Z,26.10
2018-08-14T20:18:12.196Z,26.60
2018-08-14T20:20:41.075Z,26.90
2018-08-14T20:23:10.685Z,27.50
2018-08-14T20:25:40.066Z,28.00
2018-08-14T20:28:08.834Z,28.40
2018-08-14T20:30:37.370Z,28.90
2018-08-14T20:33:06.515Z,29.40
2018-08-14T20:35:35.056Z,29.50
2018-08-14T20:38:03.511Z,29.80
2018-08-14T20:40:32.116Z,30.10
2018-08-14T20:43:00.782Z,30.30
2018-08-14T20:45:29.891Z,30.70
2018-08-14T20:47:59.507Z,31.00
2018-08-14T20:50:28.129Z,31.70
2018-08-14T20:52:56.618Z,32.00
2018-08-14T20:55:25.205Z,32.50
2018-08-14T20:57:54.676Z,32.60
2018-08-14T21:00:24.933Z,33.00
2018-08-14T21:02:54.146Z,33.40
2018-08-14T21:05:23.755Z,33.80
2018-08-14T21:07:52.623Z,34.30
2018-08-14T21:10:21.215Z,34.30
2018-08-14T21:12:49.649Z,35.10
2018-08-14T21:15:22.249Z,35.70
2018-08-14T21:17:50.783Z,36.10
2018-08-14T21:20:19.809Z,36.90
2018-08-14T21:22:48.595Z,36.70
2018-08-14T21:25:17.766Z,36.80
2018-08-14T21:27:46.296Z,37.40
2018-08-14T21:30:16.713Z,37.60
2018-08-14T21:32:45.310Z,38.80
2018-08-14T21:35:15.312Z,39.70
2018-08-14T21:37:43.847Z,40.40
2018-08-14T21:40:14.186Z,41.20
2018-08-14T21:42:44.072Z,42.10
2018-08-14T21:45:14.266Z,43.00
2018-08-14T21:47:43.050Z,44.40
2018-08-14T21:50:11.530Z,44.50
2018-08-14T21:52:40.595Z,46.60
2018-08-14T21:55:10.334Z,47.80
2018-08-14T21:57:39.639Z,48.90
2018-08-14T22:00:13.956Z,50.60
2018-08-14T22:02:43.909Z,52.40
2018-08-14T22:05:12.233Z,54.70
2018-08-14T22:07:40.760Z,54.90
2018-08-14T22:10:09.191Z,56.30
2018-08-14T22:12:38.134Z,57.40
2018-08-14T22:15:06.513Z,58.20
2018-08-14T22:17:35.320Z,58.80
2018-08-14T22:20:05.375Z,59.70
2018-08-14T22:22:33.738Z,61.00
2018-08-14T22:25:02.135Z,62.20
2018-08-14T22:27:30.579Z,63.90
2018-08-14T22:29:58.967Z,64.60
2018-08-14T22:32:27.373Z,65.80
2018-08-14T22:34:55.859Z,66.60
2018-08-14T22:37:24.261Z,67.70
2018-08-14T22:39:52.600Z,68.80
2018-08-14T22:42:21.121Z,71.80
2018-08-14T22:44:50.123Z,73.60
2018-08-14T22:47:18.739Z,74.70
2018-08-14T22:49:47.223Z,77.30
2018-08-14T22:52:15.664Z,79.30
2018-08-14T22:54:45.411Z,81.70
2018-08-14T22:57:13.754Z,83.80
2018-08-14T22:59:42.111Z,84.20
2018-08-14T23:02:11.477Z,85.70
2018-08-14T23:04:39.935Z,86.10
2018-08-14T23:07:08.847Z,87.80
2018-08-14T23:09:37.223Z,89.50
2018-08-14T23:12:05.686Z,89.50
2018-08-14T23:14:34.045Z,89.80
2018-08-14T23:17:02.350Z,90.00
2018-08-14T23:19:30.776Z,90.00
2018-08-14T23:21:59.068Z,89.80
2018-08-14T23:24:27.437Z,90.00
2018-08-14T23:26:55.783Z,90.00
2018-08-14T23:29:24.330Z,90.00
2018-08-14T23:31:52.693Z,90.10
2018-08-14T23:34:21.097Z,90.10
2018-08-14T23:36:49.735Z,90.40
2018-08-14T23:39:18.105Z,90.60
2018-08-14T23:41:47.040Z,91.10
2018-08-14T23:44:15.427Z,91.30
2018-08-14T23:46:43.858Z,91.30
2018-08-14T23:49:12.618Z,91.30
2018-08-14T23:51:41.003Z,91.30
2018-08-14T23:54:09.445Z,91.30
2018-08-14T23:56:37.924Z,91.60
2018-08-14T23:59:06.606Z,91.90
